Time;durP1;ratioP1;P1;durP2;ratioP2;P2;SDS_P1;SDS_P2;PMS_P1;PMS_P2;Temp;Humidity;BMP_temperature;BMP_pressure;BME280_temperature;BME280_humidity;BME280_pressure;Samples;Min_cycle;Max_cycle;Signal;HPM_P1;HPM_P2
2020/12/03 00:00:42;;;;;;;3.10;2.40;;;5.30;99.90;;;;;;5031952;28;20048;-75
2020/12/03 00:03:31;;;;;;;4.22;3.35;;;5.30;99.90;;;;;;5032505;28;20037;-74
2020/12/03 00:06:12;;;;;;;4.72;3.40;;;5.20;99.90;;;;;;5032099;28;20045;-75
2020/12/03 00:08:40;;;;;;;3.80;2.42;;;5.30;99.90;;;;;;5032144;28;20037;-75
2020/12/03 00:11:06;;;;;;;5.47;3.20;;;5.40;99.90;;;;;;5032122;28;20153;-75
2020/12/03 00:13:34;;;;;;;4.85;2.80;;;5.40;99.90;;;;;;5031505;28;20064;-74
2020/12/03 00:16:02;;;;;;;4.57;2.88;;;5.40;99.90;;;;;;5031345;28;20528;-75
2020/12/03 00:18:34;;;;;;;5.00;3.25;;;5.40;99.90;;;;;;5031709;28;20041;-74
2020/12/03 00:21:01;;;;;;;4.57;2.70;;;5.30;99.90;;;;;;5031598;28;20052;-75
2020/12/03 00:23:27;;;;;;;4.55;2.53;;;5.30;99.90;;;;;;5032731;28;20041;-74
2020/12/03 00:25:55;;;;;;;3.63;2.60;;;5.10;99.90;;;;;;5035011;28;20503;-75
2020/12/03 00:28:27;;;;;;;4.65;2.90;;;4.90;99.90;;;;;;5035156;28;20037;-75
2020/12/03 00:30:53;;;;;;;3.72;2.88;;;4.90;99.90;;;;;;5035309;28;20199;-75
2020/12/03 00:33:19;;;;;;;3.50;2.47;;;4.80;99.90;;;;;;5035501;28;20543;-74
2020/12/03 00:35:50;;;;;;;7.00;2.78;;;4.90;99.90;;;;;;5037433;28;20045;-75
2020/12/03 00:38:21;;;;;;;4.05;2.90;;;4.80;99.90;;;;;;5035110;28;20095;-75
2020/12/03 00:40:48;;;;;;;6.97;2.70;;;4.70;99.90;;;;;;5034561;28;20053;-75
2020/12/03 00:43:15;;;;;;;5.53;2.47;;;4.70;99.90;;;;;;5034953;28;20121;-75
2020/12/03 00:45:42;;;;;;;2.45;2.25;;;4.50;99.90;;;;;;5034531;28;20155;-75
2020/12/03 00:48:08;;;;;;;4.53;2.53;;;4.60;99.90;;;;;;5035425;28;20033;-75
2020/12/03 00:50:35;;;;;;;2.80;2.10;;;4.60;99.90;;;;;;5034918;28;20041;-75
2020/12/03 00:53:01;;;;;;;3.05;2.20;;;4.90;99.90;;;;;;5034766;28;20044;-75
2020/12/03 00:55:27;;;;;;;3.53;1.92;;;4.90;99.90;;;;;;5034635;28;20128;-75
2020/12/03 00:57:53;;;;;;;3.38;1.92;;;4.90;99.90;;;;;;5034913;28;20454;-75
2020/12/03 01:00:22;;;;;;;3.13;1.80;;;4.90;99.90;;;;;;5034616;28;20033;-75
2020/12/03 01:02:48;;;;;;;1.70;1.60;;;4.80;99.90;;;;;;5034786;28;20045;-75
2020/12/03 01:05:15;;;;;;;3.72;2.00;;;4.80;99.90;;;;;;5034403;28;20077;-75
2020/12/03 01:07:42;;;;;;;2.47;1.40;;;4.60;99.90;;;;;;5035059;28;20068;-75
2020/12/03 01:10:13;;;;;;;1.40;1.30;;;4.60;99.90;;;;;;5034974;28;20087;-75
2020/12/03 01:12:39;;;;;;;2.90;2.28;;;4.50;99.90;;;;;;5035200;28;20048;-75
2020/12/03 01:15:05;;;;;;;3.17;1.58;;;4.50;99.90;;;;;;5034339;28;20042;-75
2020/12/03 01:17:31;;;;;;;4.40;2.75;;;4.30;99.90;;;;;;5034284;28;20087;-75
2020/12/03 01:19:57;;;;;;;3.85;1.77;;;4.40;99.90;;;;;;5034355;28;20428;-75
2020/12/03 01:22:23;;;;;;;2.75;2.13;;;4.60;99.90;;;;;;5034225;28;20095;-75
2020/12/03 01:24:49;;;;;;;3.20;2.22;;;4.60;99.90;;;;;;5034310;28;20092;-75
2020/12/03 01:27:15;;;;;;;2.30;1.83;;;4.60;99.90;;;;;;5034231;28;20065;-75
2020/12/03 01:29:43;;;;;;;1.27;0.98;;;4.60;99.90;;;;;;5034682;28;20042;-75
2020/12/03 01:32:09;;;;;;;1.40;1.10;;;4.70;99.90;;;;;;5034762;28;20377;-75
2020/12/03 01:34:35;;;;;;;1.52;1.00;;;4.70;99.90;;;;;;5033701;28;20046;-75
2020/12/03 01:37:01;;;;;;;0.85;0.70;;;4.60;99.90;;;;;;5034069;28;20111;-75
2020/12/03 01:39:27;;;;;;;1.95;1.00;;;4.60;99.90;;;;;;5034412;28;20131;-75
2020/12/03 01:41:53;;;;;;;1.38;0.90;;;4.40;99.90;;;;;;5034001;28;20124;-75
2020/12/03 01:44:45;;;;;;;1.83;1.20;;;4.40;99.90;;;;;;5034076;28;20046;-75
2020/12/03 01:47:26;;;;;;;1.92;1.30;;;4.40;99.90;;;;;;5034371;28;20042;-75
2020/12/03 01:49:52;;;;;;;2.25;1.38;;;4.50;99.90;;;;;;5034383;28;20064;-74
2020/12/03 01:52:19;;;;;;;3.33;1.92;;;4.60;99.90;;;;;;5034070;28;20071;-75
2020/12/03 01:54:45;;;;;;;3.63;1.63;;;4.50;99.90;;;;;;5033916;28;20125;-75
2020/12/03 01:57:45;;;;;;;4.28;1.50;;;4.60;99.90;;;;;;5034271;28;20123;-74
2020/12/03 02:00:17;;;;;;;3.38;1.52;;;4.60;99.90;;;;;;5034194;28;20037;-75
2020/12/03 02:02:47;;;;;;;4.25;1.40;;;4.60;99.90;;;;;;5034349;28;20042;-75
2020/12/03 02:05:28;;;;;;;2.50;1.20;;;4.80;99.90;;;;;;5034224;28;20045;-75
2020/12/03 02:07:54;;;;;;;4.63;1.52;;;4.80;99.90;;;;;;5033639;28;20431;-75
2020/12/03 02:10:23;;;;;;;4.75;1.40;;;4.80;99.90;;;;;;5033574;28;20042;-75
2020/12/03 02:12:50;;;;;;;3.67;1.48;;;4.90;99.90;;;;;;5033692;28;20037;-75
2020/12/03 02:15:17;;;;;;;2.78;1.60;;;4.90;99.90;;;;;;5034050;28;20472;-75
2020/12/03 02:17:43;;;;;;;4.57;1.60;;;4.90;99.90;;;;;;5034071;28;20487;-75
2020/12/03 02:20:12;;;;;;;4.00;1.80;;;4.90;99.90;;;;;;5033437;28;20041;-75
2020/12/03 02:22:38;;;;;;;2.47;1.48;;;5.00;99.90;;;;;;5033453;28;20041;-75
2020/12/03 02:25:05;;;;;;;4.95;1.30;;;4.90;99.90;;;;;;5032867;28;20080;-75
2020/12/03 02:27:31;;;;;;;5.25;1.88;;;4.90;99.90;;;;;;5033145;28;20045;-75
2020/12/03 02:29:57;;;;;;;4.07;1.70;;;4.90;99.90;;;;;;5032833;28;20037;-75
2020/12/03 02:32:23;;;;;;;8.77;1.85;;;4.90;99.90;;;;;;5033178;28;20089;-75
2020/12/03 02:34:49;;;;;;;6.47;1.95;;;5.00;99.90;;;;;;5032877;28;20099;-75
2020/12/03 02:37:17;;;;;;;2.35;1.27;;;5.00;99.90;;;;;;5033199;28;20045;-75
2020/12/03 02:39:43;;;;;;;5.88;1.83;;;4.90;99.90;;;;;;5033462;28;20103;-75
2020/12/03 02:42:12;;;;;;;4.20;1.40;;;4.90;99.90;;;;;;5032815;28;20068;-75
2020/12/03 02:44:45;;;;;;;8.82;2.13;;;4.90;99.90;;;;;;5032505;28;20056;-75
2020/12/03 02:47:13;;;;;;;4.85;1.75;;;4.90;99.90;;;;;;5031710;28;20049;-75
2020/12/03 02:49:42;;;;;;;4.97;1.25;;;4.90;99.90;;;;;;5032562;28;20103;-75
2020/12/03 02:52:14;;;;;;;4.82;1.85;;;4.90;99.90;;;;;;5032483;28;20612;-75
2020/12/03 02:54:40;;;;;;;5.90;1.80;;;4.90;99.90;;;;;;5032810;28;20053;-75
2020/12/03 02:57:07;;;;;;;4.25;1.40;;;4.80;99.90;;;;;;5032412;28;20045;-75
2020/12/03 02:59:33;;;;;;;3.78;0.98;;;4.80;99.90;;;;;;5032255;28;20037;-75
2020/12/03 03:01:59;;;;;;;6.82;1.40;;;4.80;99.90;;;;;;5032495;28;20048;-75
2020/12/03 03:04:25;;;;;;;6.45;1.63;;;4.70;99.90;;;;;;5032234;28;20029;-75
2020/12/03 03:06:52;;;;;;;6.07;1.40;;;4.70;99.90;;;;;;5032244;28;20045;-75
2020/12/03 03:09:18;;;;;;;7.97;1.60;;;4.80;99.90;;;;;;5033013;28;20519;-75
2020/12/03 03:11:44;;;;;;;7.05;1.77;;;4.80;99.90;;;;;;5032529;28;20053;-75
2020/12/03 03:14:10;;;;;;;6.43;1.52;;;4.80;99.90;;;;;;5032032;28;20159;-75
2020/12/03 03:16:36;;;;;;;5.13;1.70;;;4.80;99.90;;;;;;5032454;28;20088;-75
2020/12/03 03:19:02;;;;;;;7.50;2.00;;;4.70;99.90;;;;;;5032068;28;20041;-75
2020/12/03 03:21:28;;;;;;;8.27;2.00;;;4.70;99.90;;;;;;5032286;28;20041;-75
2020/12/03 03:23:54;;;;;;;6.30;1.70;;;4.80;99.90;;;;;;5031747;28;20037;-75
2020/12/03 03:26:20;;;;;;;6.65;1.77;;;4.80;99.90;;;;;;5047850;28;20404;-75
2020/12/03 03:28:46;;;;;;;6.00;1.70;;;4.70;99.90;;;;;;5032418;28;20120;-75
2020/12/03 03:31:12;;;;;;;8.98;1.85;;;4.70;99.90;;;;;;5032133;28;20124;-75
2020/12/03 03:33:38;;;;;;;6.95;1.85;;;4.60;99.90;;;;;;5031897;28;20045;-75
2020/12/03 03:36:04;;;;;;;6.22;1.60;;;4.50;99.90;;;;;;5031921;28;20064;-75
2020/12/03 03:38:31;;;;;;;7.00;1.70;;;4.60;99.90;;;;;;5031856;28;20041;-74
2020/12/03 03:40:56;;;;;;;4.90;1.67;;;4.70;99.90;;;;;;5032048;28;20448;-75
2020/12/03 03:43:22;;;;;;;8.60;2.10;;;4.60;99.90;;;;;;5032000;28;20041;-75
2020/12/03 03:45:49;;;;;;;8.45;2.08;;;4.70;99.90;;;;;;5032119;28;20071;-75
2020/12/03 03:48:14;;;;;;;5.88;2.17;;;4.70;99.90;;;;;;5031770;28;20053;-75
2020/12/03 03:50:40;;;;;;;7.25;2.05;;;4.70;99.90;;;;;;5032073;28;20037;-75
2020/12/03 03:53:06;;;;;;;8.73;2.38;;;4.60;99.90;;;;;;5031739;28;20045;-75
2020/12/03 03:55:32;;;;;;;7.72;1.98;;;4.60;99.90;;;;;;5031794;28;20033;-75
2020/12/03 03:57:58;;;;;;;6.50;1.77;;;4.60;99.90;;;;;;5031137;28;20033;-75
2020/12/03 04:00:24;;;;;;;8.98;2.03;;;4.70;99.90;;;;;;5035619;28;20037;-75
2020/12/03 04:02:50;;;;;;;9.02;1.90;;;4.80;99.90;;;;;;5036184;28;20064;-75
2020/12/03 04:05:17;;;;;;;5.07;1.85;;;4.70;99.90;;;;;;5035755;28;20037;-75
2020/12/03 04:07:44;;;;;;;6.65;1.70;;;4.70;99.90;;;;;;5035821;28;20052;-75
2020/12/03 04:10:10;;;;;;;5.60;1.92;;;4.70;99.90;;;;;;5035545;28;20044;-75
2020/12/03 04:12:39;;;;;;;8.93;1.88;;;4.60;99.90;;;;;;5035689;28;20041;-75
2020/12/03 04:15:05;;;;;;;8.07;2.03;;;4.70;99.90;;;;;;5035366;28;20087;-75
2020/12/03 04:17:32;;;;;;;4.70;1.48;;;4.70;99.90;;;;;;5035374;28;20048;-75
2020/12/03 04:20:02;;;;;;;8.93;2.05;;;4.70;99.90;;;;;;5035403;28;20124;-75
2020/12/03 04:22:28;;;;;;;5.78;2.17;;;4.70;99.90;;;;;;5035450;28;20488;-75
2020/12/03 04:24:54;;;;;;;3.95;1.20;;;4.60;99.90;;;;;;5035559;28;20060;-75
2020/12/03 04:27:20;;;;;;;9.35;2.45;;;4.60;99.90;;;;;;5035978;28;20570;-75
2020/12/03 04:29:47;;;;;;;6.50;1.85;;;4.60;99.90;;;;;;5035131;28;20041;-75
2020/12/03 04:32:12;;;;;;;7.53;1.90;;;4.60;99.90;;;;;;5035555;28;20044;-75
2020/12/03 04:34:38;;;;;;;10.95;2.35;;;4.70;99.90;;;;;;5035442;28;20052;-75
2020/12/03 04:37:04;;;;;;;7.90;2.53;;;4.70;99.90;;;;;;5035527;28;20048;-75
2020/12/03 04:39:30;;;;;;;6.35;2.42;;;4.70;99.90;;;;;;5035332;28;20033;-75
2020/12/03 04:41:56;;;;;;;8.18;2.30;;;4.70;99.90;;;;;;5035470;28;20500;-75
2020/12/03 04:44:30;;;;;;;8.50;2.10;;;4.70;99.90;;;;;;5035531;28;20485;-75
2020/12/03 04:47:18;;;;;;;7.72;1.70;;;4.70;99.90;;;;;;5035433;28;20053;-75
2020/12/03 04:49:46;;;;;;;8.43;1.65;;;4.70;99.90;;;;;;5035386;28;20124;-75
2020/12/03 04:52:36;;;;;;;8.05;2.10;;;4.70;99.90;;;;;;5035236;28;20041;-75
2020/12/03 04:55:17;;;;;;;7.32;2.03;;;4.60;99.90;;;;;;5035065;28;20095;-75
2020/12/03 04:58:20;;;;;;;9.52;1.98;;;4.50;99.90;;;;;;5035005;28;20033;-75
2020/12/03 05:01:20;;;;;;;6.13;1.60;;;4.60;99.90;;;;;;5033710;28;20037;-75
2020/12/03 05:04:13;;;;;;;4.65;1.40;;;4.60;99.90;;;;;;5034935;28;20041;-75
2020/12/03 05:06:53;;;;;;;7.70;2.17;;;4.60;99.90;;;;;;5034874;28;20484;-75
2020/12/03 05:09:33;;;;;;;5.03;1.52;;;4.70;99.90;;;;;;5034270;28;20495;-75
2020/12/03 05:12:12;;;;;;;6.03;1.55;;;4.70;99.90;;;;;;5034973;28;20044;-75
2020/12/03 05:14:46;;;;;;;6.70;1.52;;;4.70;99.90;;;;;;5034717;28;20029;-75
2020/12/03 05:17:44;;;;;;;7.40;1.73;;;4.70;99.90;;;;;;5034560;28;20132;-75
2020/12/03 05:20:36;;;;;;;6.35;1.50;;;4.70;99.90;;;;;;5034564;28;20112;-74
2020/12/03 05:23:10;;;;;;;7.43;2.17;;;4.70;99.90;;;;;;5034757;28;20033;-74
2020/12/03 05:25:36;;;;;;;5.35;2.03;;;4.70;99.90;;;;;;5034066;28;20080;-75
2020/12/03 05:28:25;;;;;;;10.50;2.05;;;4.70;99.90;;;;;;5034138;28;20045;-75
2020/12/03 05:30:58;;;;;;;6.95;1.70;;;4.70;99.90;;;;;;5034141;28;20072;-75
2020/12/03 05:33:24;;;;;;;7.25;1.90;;;4.70;99.90;;;;;;5034513;28;20575;-75
2020/12/03 05:35:50;;;;;;;10.48;2.30;;;4.70;99.90;;;;;;5033724;28;20049;-73
2020/12/03 05:38:26;;;;;;;7.07;2.08;;;4.70;99.90;;;;;;5032291;28;20110;-75
2020/12/03 05:41:01;;;;;;;8.82;2.05;;;4.70;99.90;;;;;;5031300;28;20116;-75
2020/12/03 05:43:29;;;;;;;7.22;1.73;;;4.80;99.90;;;;;;5033334;28;20033;-74
2020/12/03 05:46:01;;;;;;;9.50;2.35;;;4.70;99.90;;;;;;5033059;28;20076;-74
2020/12/03 05:48:27;;;;;;;8.65;2.22;;;4.80;99.90;;;;;;5033228;28;20042;-74
2020/12/03 05:50:54;;;;;;;10.52;2.05;;;4.80;99.90;;;;;;5033712;28;20076;-74
2020/12/03 05:53:28;;;;;;;10.88;2.33;;;4.80;99.90;;;;;;5033603;28;20559;-74
2020/12/03 05:56:19;;;;;;;8.18;2.13;;;4.80;99.90;;;;;;5033977;28;20072;-74
2020/12/03 05:58:45;;;;;;;5.93;1.70;;;4.80;99.90;;;;;;5033370;28;20033;-73
2020/12/03 06:01:24;;;;;;;8.10;2.15;;;4.70;99.90;;;;;;5032330;28;20076;-74
2020/12/03 06:03:50;;;;;;;8.82;2.75;;;4.90;99.90;;;;;;5032563;28;20076;-73
2020/12/03 06:06:53;;;;;;;9.02;3.05;;;4.80;99.90;;;;;;5033389;28;20100;-75
2020/12/03 06:09:48;;;;;;;7.28;1.80;;;4.70;99.90;;;;;;5033381;28;20108;-74
2020/12/03 06:12:44;;;;;;;6.18;1.63;;;4.70;99.90;;;;;;5019383;28;20523;-74
2020/12/03 06:15:36;;;;;;;7.22;2.15;;;4.70;99.90;;;;;;5032048;28;20041;-74
2020/12/03 06:18:28;;;;;;;8.30;2.30;;;4.70;99.90;;;;;;5033017;28;20116;-73
2020/12/03 06:21:18;;;;;;;6.13;1.70;;;4.70;99.90;;;;;;5028132;28;20042;-73
2020/12/03 06:24:33;;;;;;;7.00;2.05;;;4.80;99.90;;;;;;5033019;28;20048;-74
2020/12/03 06:27:07;;;;;;;7.05;1.70;;;4.80;99.90;;;;;;5017802;28;20050;-74
2020/12/03 06:29:57;;;;;;;9.77;1.80;;;4.80;99.90;;;;;;5032411;28;20042;-74
2020/12/03 06:32:43;;;;;;;6.65;1.77;;;5.00;99.90;;;;;;5032779;28;20049;-74
2020/12/03 06:35:22;;;;;;;6.63;1.88;;;5.00;99.80;;;;;;5032970;28;20041;-73
2020/12/03 06:38:06;;;;;;;3.33;1.38;;;5.00;99.90;;;;;;5032792;28;20083;-73
2020/12/03 06:40:39;;;;;;;6.88;1.67;;;5.00;99.90;;;;;;5032695;28;20067;-74
2020/12/03 06:43:44;;;;;;;6.10;1.73;;;4.90;99.90;;;;;;5032490;28;20040;-74
2020/12/03 06:46:15;;;;;;;9.70;2.20;;;5.00;99.90;;;;;;5021199;28;20053;-73
2020/12/03 06:49:06;;;;;;;7.38;2.00;;;4.90;99.90;;;;;;5032088;28;20107;-74
2020/12/03 06:52:07;;;;;;;9.02;2.20;;;4.90;99.90;;;;;;5032788;28;20034;-73
2020/12/03 06:54:48;;;;;;;6.53;1.75;;;4.90;99.90;;;;;;5032595;28;20072;-74
2020/12/03 06:57:44;;;;;;;9.30;1.63;;;5.20;99.90;;;;;;5032113;28;20050;-74
2020/12/03 07:00:13;;;;;;;8.95;1.65;;;5.20;99.90;;;;;;5032120;28;20046;-74
2020/12/03 07:02:57;;;;;;;5.72;1.52;;;5.30;99.50;;;;;;5032387;28;20044;-74
2020/12/03 07:05:47;;;;;;;10.70;1.95;;;5.30;99.50;;;;;;5032388;28;20033;-74
2020/12/03 07:08:46;;;;;;;6.32;1.50;;;5.30;99.60;;;;;;5031615;28;20069;-76
2020/12/03 07:11:50;;;;;;;8.15;1.65;;;5.30;99.50;;;;;;5031686;28;20037;-76
2020/12/03 07:14:54;;;;;;;5.40;1.27;;;5.40;99.30;;;;;;5023834;28;20645;-76
2020/12/03 07:17:44;;;;;;;5.70;1.75;;;5.50;98.90;;;;;;5031681;28;20116;-76
2020/12/03 07:20:19;;;;;;;11.57;2.47;;;5.60;98.80;;;;;;5032576;28;20034;-76
2020/12/03 07:22:52;;;;;;;7.75;1.70;;;5.60;99.00;;;;;;5032005;28;20067;-76
2020/12/03 07:25:18;;;;;;;6.88;1.58;;;5.70;99.00;;;;;;5031904;28;20088;-76
2020/12/03 07:27:52;;;;;;;5.05;1.40;;;5.70;99.10;;;;;;5032015;28;20085;-76
2020/12/03 07:30:30;;;;;;;4.43;1.40;;;5.70;99.50;;;;;;5032284;28;20037;-76
2020/12/03 07:33:34;;;;;;;8.15;2.22;;;5.70;99.50;;;;;;5031388;28;20072;-76
2020/12/03 07:36:13;;;;;;;6.38;1.52;;;5.70;99.50;;;;;;5026553;28;20116;-76
2020/12/03 07:38:52;;;;;;;17.65;4.75;;;5.80;99.10;;;;;;5027369;28;20092;-76
2020/12/03 07:41:21;;;;;;;9.05;3.58;;;5.70;99.10;;;;;;5028700;28;20049;-76
2020/12/03 07:43:47;;;;;;;9.73;3.95;;;5.70;98.70;;;;;;5021665;28;20044;-76
2020/12/03 07:46:35;;;;;;;5.43;1.80;;;5.70;99.00;;;;;;5031973;28;20054;-76
2020/12/03 07:49:02;;;;;;;12.07;3.25;;;5.70;99.30;;;;;;5032039;28;20034;-76
2020/12/03 07:51:28;;;;;;;6.53;2.40;;;5.60;99.30;;;;;;5032021;28;20068;-76
2020/12/03 07:54:17;;;;;;;12.50;2.92;;;5.70;99.30;;;;;;5027261;28;20128;-76
2020/12/03 07:56:47;;;;;;;9.43;2.30;;;5.70;99.40;;;;;;5030196;28;20037;-76
2020/12/03 07:59:35;;;;;;;8.70;2.87;;;5.60;99.20;;;;;;5030909;28;20034;-76
2020/12/03 08:02:03;;;;;;;7.75;1.92;;;5.60;99.30;;;;;;5031642;28;20118;-77
2020/12/03 08:04:36;;;;;;;8.98;2.20;;;5.70;99.10;;;;;;5030869;28;20119;-76
2020/12/03 08:07:02;;;;;;;3.25;1.48;;;5.70;99.60;;;;;;5031061;28;20046;-76
2020/12/03 08:09:48;;;;;;;7.57;2.28;;;5.70;99.20;;;;;;5030660;28;20045;-76
2020/12/03 08:12:22;;;;;;;7.28;1.88;;;5.70;99.30;;;;;;5030846;28;20095;-76
2020/12/03 08:14:55;;;;;;;6.50;2.05;;;5.80;99.30;;;;;;5031275;28;20132;-76
2020/12/03 08:17:21;;;;;;;9.93;2.38;;;5.80;99.40;;;;;;5032327;28;20123;-76
2020/12/03 08:19:57;;;;;;;6.05;2.30;;;5.80;99.60;;;;;;5034096;28;20091;-76
2020/12/03 08:22:25;;;;;;;11.82;2.53;;;5.80;99.30;;;;;;5033794;28;20122;-75
2020/12/03 08:25:01;;;;;;;8.00;2.97;;;5.90;99.30;;;;;;5032412;28;20153;-76
2020/12/03 08:27:27;;;;;;;7.65;2.53;;;5.90;99.20;;;;;;5034022;28;20527;-75
2020/12/03 08:29:53;;;;;;;8.05;2.33;;;6.00;98.70;;;;;;5033500;28;20045;-76
2020/12/03 08:32:18;;;;;;;6.75;2.17;;;6.00;98.30;;;;;;5026318;28;20040;-75
2020/12/03 08:34:44;;;;;;;5.72;1.90;;;6.00;98.30;;;;;;5025655;28;20095;-76
2020/12/03 08:37:16;;;;;;;4.43;1.60;;;5.90;98.30;;;;;;5013938;28;20415;-76
2020/12/03 08:39:45;;;;;;;3.83;2.10;;;6.00;98.10;;;;;;5022537;28;20060;-76
2020/12/03 08:42:14;;;;;;;1.98;1.40;;;6.00;98.50;;;;;;5029256;28;20128;-76
2020/12/03 08:44:41;;;;;;;7.15;1.90;;;6.00;98.20;;;;;;5015360;28;20042;-76
2020/12/03 08:47:26;;;;;;;6.82;2.10;;;6.00;98.50;;;;;;5028675;28;20046;-76
2020/12/03 08:49:53;;;;;;;10.10;2.25;;;6.00;98.60;;;;;;5016790;28;20120;-75
2020/12/03 08:52:19;;;;;;;5.10;2.20;;;6.00;99.00;;;;;;5016589;28;20044;-76
2020/12/03 08:54:45;;;;;;;7.80;1.70;;;6.20;98.70;;;;;;5018095;28;20045;-76
2020/12/03 08:57:14;;;;;;;6.88;1.83;;;6.20;98.40;;;;;;5027570;28;20037;-76
2020/12/03 08:59:46;;;;;;;3.10;1.50;;;6.30;98.50;;;;;;5034431;28;20578;-76
2020/12/03 09:02:18;;;;;;;6.70;1.83;;;6.40;98.30;;;;;;5036189;28;20033;-76
2020/12/03 09:04:51;;;;;;;7.82;1.77;;;6.60;98.10;;;;;;5035761;28;20193;-75
2020/12/03 09:07:19;;;;;;;3.58;1.83;;;6.70;98.10;;;;;;5034073;28;20508;-76
2020/12/03 09:09:47;;;;;;;6.05;2.22;;;6.80;97.80;;;;;;5035887;28;20038;-76
2020/12/03 09:12:18;;;;;;;9.27;1.92;;;6.80;97.90;;;;;;5035810;28;20083;-76
2020/12/03 09:14:48;;;;;;;6.97;2.50;;;6.90;97.60;;;;;;5015924;28;20042;-76
2020/12/03 09:17:18;;;;;;;8.60;2.85;;;7.00;97.70;;;;;;5015919;28;20046;-77
2020/12/03 09:19:44;;;;;;;9.93;3.15;;;7.10;97.10;;;;;;5016960;28;20049;-76
2020/12/03 09:22:13;;;;;;;8.18;2.42;;;7.30;97.30;;;;;;5017223;28;20042;-76
2020/12/03 09:24:40;;;;;;;5.47;2.30;;;7.30;96.10;;;;;;5016540;28;20057;-76
2020/12/03 09:27:08;;;;;;;9.00;2.80;;;7.40;96.10;;;;;;5016579;28;20132;-76
2020/12/03 09:29:35;;;;;;;5.85;2.53;;;7.50;95.90;;;;;;5016470;28;20139;-76
2020/12/03 09:32:05;;;;;;;7.38;2.40;;;7.50;95.80;;;;;;5017202;28;20057;-76
2020/12/03 09:34:34;;;;;;;7.75;2.40;;;7.70;96.00;;;;;;5016583;28;20046;-76
2020/12/03 09:37:03;;;;;;;10.20;2.28;;;7.90;95.60;;;;;;5016257;28;20042;-76
2020/12/03 09:39:32;;;;;;;8.63;2.03;;;7.90;95.40;;;;;;5016475;28;20065;-76
2020/12/03 09:41:59;;;;;;;8.00;1.77;;;8.00;95.30;;;;;;5017074;28;20042;-76
2020/12/03 09:44:26;;;;;;;4.22;1.63;;;8.10;95.40;;;;;;5016826;28;20107;-76
2020/12/03 09:46:56;;;;;;;6.25;1.98;;;8.40;94.70;;;;;;5015062;28;20049;-77
2020/12/03 09:49:22;;;;;;;2.97;1.20;;;8.40;94.90;;;;;;5016632;28;20077;-77
2020/12/03 09:51:48;;;;;;;4.93;1.20;;;8.30;94.50;;;;;;5016588;28;20426;-76
2020/12/03 09:54:14;;;;;;;4.30;1.33;;;8.30;95.10;;;;;;5016209;28;20044;-76
2020/12/03 09:56:41;;;;;;;4.47;1.40;;;8.50;95.10;;;;;;5015991;28;20061;-76
2020/12/03 09:59:07;;;;;;;2.28;0.90;;;8.70;94.60;;;;;;5015963;28;20060;-76
2020/12/03 10:02:01;;;;;;;4.47;1.20;;;8.70;94.20;;;;;;5015805;28;20033;-76
2020/12/03 10:05:02;;;;;;;3.67;1.50;;;8.90;94.00;;;;;;5024087;28;20388;-76
2020/12/03 10:08:06;;;;;;;4.40;1.13;;;8.90;94.00;;;;;;5016335;28;20048;-76
2020/12/03 10:11:01;;;;;;;3.65;1.05;;;8.90;93.80;;;;;;5016099;28;20038;-76
2020/12/03 10:14:05;;;;;;;3.53;0.70;;;9.10;93.20;;;;;;5016506;28;20068;-76
2020/12/03 10:16:36;;;;;;;5.93;1.45;;;9.20;93.10;;;;;;5016344;28;20034;-76
2020/12/03 10:19:04;;;;;;;;;;;9.20;93.30;;;;;;5016509;28;20132;-76
2020/12/03 10:21:54;;;;;;;3.20;1.00;;;9.30;92.80;;;;;;5016384;28;19909;-75
2020/12/03 10:24:25;;;;;;;6.63;1.35;;;8.90;92.90;;;;;;5015319;28;20052;-76
2020/12/03 10:27:02;;;;;;;4.32;1.27;;;9.00;93.40;;;;;;5016736;28;20053;-77
2020/12/03 10:29:31;;;;;;;3.15;0.95;;;9.10;93.10;;;;;;5015805;28;20037;-76
2020/12/03 10:32:07;;;;;;;5.22;1.55;;;8.90;93.80;;;;;;5016645;28;20121;-76
2020/12/03 10:34:47;;;;;;;6.25;1.20;;;8.70;93.80;;;;;;5016165;28;20041;-76
2020/12/03 10:37:31;;;;;;;4.20;1.23;;;8.80;93.70;;;;;;5030778;28;20037;-77
2020/12/03 10:40:15;;;;;;;3.17;1.20;;;8.80;93.70;;;;;;5034614;28;20041;-77
2020/12/03 10:42:50;;;;;;;4.35;1.00;;;8.90;94.20;;;;;;5035014;28;20039;-76
2020/12/03 10:45:22;;;;;;;6.97;1.30;;;8.90;93.70;;;;;;5035018;28;20037;-76
2020/12/03 10:48:09;;;;;;;3.53;1.10;;;8.90;93.60;;;;;;5034557;28;20075;-77
2020/12/03 10:50:50;;;;;;;5.85;1.90;;;9.00;93.40;;;;;;5033612;28;20115;-76
2020/12/03 10:53:29;;;;;;;4.78;2.03;;;9.10;93.70;;;;;;5034853;28;20400;-76
2020/12/03 10:56:12;;;;;;;9.68;5.05;;;9.00;94.10;;;;;;5035219;28;20037;-76
2020/12/03 10:59:01;;;;;;;8.82;3.10;;;9.00;93.60;;;;;;5035413;28;20120;-76
2020/12/03 11:01:32;;;;;;;7.78;4.10;;;8.90;93.30;;;;;;5035352;28;20064;-76
2020/12/03 11:04:04;;;;;;;7.93;4.22;;;9.10;93.50;;;;;;5034964;28;20048;-77
2020/12/03 11:06:32;;;;;;;10.65;4.35;;;9.10;93.20;;;;;;5035095;28;20049;-77
2020/12/03 11:08:59;;;;;;;8.07;3.60;;;9.00;93.90;;;;;;5034005;28;20033;-76
2020/12/03 11:11:33;;;;;;;8.57;2.60;;;9.10;93.20;;;;;;5034868;28;20415;-76
2020/12/03 11:14:00;;;;;;;6.18;2.10;;;9.00;93.40;;;;;;5033122;28;20046;-77
2020/12/03 11:16:31;;;;;;;6.68;2.90;;;9.10;93.00;;;;;;5034536;28;20037;-77
2020/12/03 11:18:59;;;;;;;4.40;1.90;;;9.00;93.70;;;;;;5035070;28;20041;-77
2020/12/03 11:21:31;;;;;;;5.53;2.30;;;8.90;93.20;;;;;;5034189;28;20124;-77
2020/12/03 11:24:03;;;;;;;3.85;1.70;;;8.90;93.30;;;;;;5035035;28;20068;-76
2020/12/03 11:26:33;;;;;;;2.92;1.30;;;9.10;93.20;;;;;;5034605;28;20124;-76
2020/12/03 11:29:17;;;;;;;3.72;1.15;;;9.10;93.00;;;;;;5033522;28;20062;-76
2020/12/03 11:31:43;;;;;;;2.70;1.08;;;9.20;93.00;;;;;;5033888;28;20120;-76
2020/12/03 11:34:10;;;;;;;4.53;1.38;;;9.20;93.10;;;;;;5015116;28;20577;-77
2020/12/03 11:36:38;;;;;;;6.88;1.30;;;9.40;92.50;;;;;;5032442;28;20129;-76
2020/12/03 11:39:09;;;;;;;3.28;1.00;;;9.40;91.90;;;;;;5025057;28;20057;-76
2020/12/03 11:44:29;;;;;;;3.20;1.02;;;9.20;91.80;;;;;;5028695;28;20079;-76
2020/12/03 11:49:39;;;;;;;7.15;1.52;;;8.90;91.70;;;;;;5029887;28;20048;-76
2020/12/03 11:52:15;;;;;;;8.52;3.97;;;8.80;92.40;;;;;;5030373;28;20120;-76
2020/12/03 11:54:42;;;;;;;4.10;1.63;;;8.70;93.10;;;;;;5011561;28;20092;-76
2020/12/03 11:57:09;;;;;;;3.03;1.30;;;8.40;93.60;;;;;;5030734;28;20128;-75
2020/12/03 11:59:36;;;;;;;4.82;1.10;;;8.40;93.30;;;;;;5028109;28;20045;-76
2020/12/03 12:02:06;;;;;;;4.13;1.13;;;8.30;93.70;;;;;;5030928;28;20030;-77
2020/12/03 12:07:13;;;;;;;4.85;1.80;;;8.00;93.50;;;;;;5030844;28;20079;-76
2020/12/03 12:12:05;;;;;;;3.35;1.27;;;7.90;94.00;;;;;;5010936;28;20030;-76
2020/12/03 12:14:30;;;;;;;4.20;1.40;;;7.90;94.20;;;;;;5029784;28;20463;-76
2020/12/03 12:16:56;;;;;;;5.50;1.67;;;7.80;94.60;;;;;;5030253;28;20454;-76
2020/12/03 12:19:25;;;;;;;3.28;1.15;;;7.80;94.80;;;;;;5031299;28;20526;-77
2020/12/03 12:21:52;;;;;;;4.80;1.20;;;7.90;94.30;;;;;;5034995;28;20045;-77
2020/12/03 12:24:18;;;;;;;5.50;1.23;;;8.00;94.20;;;;;;5032129;28;20144;-76
2020/12/03 12:26:43;;;;;;;5.32;1.35;;;8.10;94.70;;;;;;5034912;28;20124;-76
2020/12/03 12:29:09;;;;;;;4.65;1.20;;;8.10;94.40;;;;;;5033973;28;20046;-76
2020/12/03 12:31:35;;;;;;;3.33;1.10;;;8.20;95.10;;;;;;5034551;28;20134;-76
2020/12/03 12:34:01;;;;;;;1.48;0.90;;;8.30;94.20;;;;;;5016768;28;20037;-76
2020/12/03 12:36:28;;;;;;;5.75;1.58;;;8.40;94.50;;;;;;5031553;28;20064;-76
2020/12/03 12:38:54;;;;;;;7.13;2.20;;;8.50;94.20;;;;;;5031702;28;20151;-76
2020/12/03 12:41:20;;;;;;;3.22;0.98;;;8.60;93.80;;;;;;5022867;28;20045;-75
2020/12/03 12:43:46;;;;;;;6.07;1.33;;;8.70;93.30;;;;;;5032551;28;20523;-76
2020/12/03 12:46:12;;;;;;;3.75;1.25;;;8.90;93.00;;;;;;5034066;28;20049;-76
2020/12/03 12:48:38;;;;;;;3.28;1.67;;;8.90;92.60;;;;;;5033328;28;20140;-75
2020/12/03 12:51:04;;;;;;;5.70;2.40;;;9.00;92.50;;;;;;5031636;28;20049;-76
2020/12/03 12:53:30;;;;;;;4.85;1.38;;;9.00;92.30;;;;;;5031771;28;20033;-75
2020/12/03 12:55:56;;;;;;;3.03;1.00;;;9.20;92.50;;;;;;5033316;28;20091;-76
2020/12/03 12:58:22;;;;;;;7.38;1.70;;;9.20;91.90;;;;;;5033794;28;20463;-76
2020/12/03 13:00:47;;;;;;;6.63;1.48;;;9.30;92.30;;;;;;5016865;28;20117;-75
2020/12/03 13:03:14;;;;;;;5.93;3.92;;;9.40;91.60;;;;;;5020489;28;20124;-75
2020/12/03 13:05:40;;;;;;;3.45;1.00;;;9.60;91.90;;;;;;5033778;28;20051;-76
2020/12/03 13:08:05;;;;;;;4.00;1.13;;;9.50;90.90;;;;;;5033045;28;20037;-76
2020/12/03 13:10:31;;;;;;;6.25;2.45;;;9.30;91.20;;;;;;5033564;28;20120;-76
2020/12/03 13:12:57;;;;;;;7.05;4.82;;;9.30;91.90;;;;;;5032838;28;20034;-77
2020/12/03 13:15:23;;;;;;;5.68;3.92;;;9.50;91.50;;;;;;5033848;28;20546;-76
2020/12/03 13:17:49;;;;;;;3.83;3.05;;;9.40;90.90;;;;;;5034197;28;20495;-76
2020/12/03 13:20:15;;;;;;;2.78;1.05;;;9.40;92.10;;;;;;5034040;28;20049;-76
2020/12/03 13:22:41;;;;;;;2.88;1.17;;;9.30;91.40;;;;;;5033665;28;20428;-76
2020/12/03 13:25:07;;;;;;;4.57;0.60;;;9.50;91.90;;;;;;5033638;28;20057;-76
2020/12/03 13:27:32;;;;;;;5.43;1.00;;;9.50;91.40;;;;;;5032945;28;20067;-76
2020/12/03 13:30:00;;;;;;;2.33;0.90;;;9.50;91.70;;;;;;5034608;28;20412;-77
2020/12/03 13:32:25;;;;;;;3.17;0.70;;;9.80;91.30;;;;;;5032103;28;20029;-77
2020/12/03 13:34:51;;;;;;;5.20;1.05;;;10.00;90.60;;;;;;5035002;28;20125;-76